Terminal Aerodrome Forecast
Issued by NWS

Home | Current Version | Previous Version | Text Only | Print | Product List | Glossary On
Versions: 1 2 3 4 5 6 7 8 9 10 11 12
108
FTUS43 KLSX 251722
TAFUIN
TAF
KUIN 251722Z 2518/2618 19006KT P6SM FEW050
     FM260100 16004KT P6SM SCT200
     FM261400 22005KT P6SM SCT060=

USA.gov is the U.S. government's official web portal to all federal, state and local government web resources and services.